sensor_id;sensor_type;location;lat;lon;timestamp;pressure;altitude;pressure_sealevel;temperature;humidity
62038;BME280;47991;42.974;12.082;2023-04-27T00:03:32;97751.44;;;7.70;59.85
62038;BME280;47991;42.974;12.082;2023-04-27T00:06:20;97745.96;;;7.71;60.08
62038;BME280;47991;42.974;12.082;2023-04-27T00:09:57;97742.71;;;7.66;60.30
62038;BME280;47991;42.974;12.082;2023-04-27T00:12:17;97742.46;;;7.60;60.35
62038;BME280;47991;42.974;12.082;2023-04-27T00:15:20;97740.97;;;7.65;59.65
62038;BME280;47991;42.974;12.082;2023-04-27T00:17:52;97743.23;;;7.66;59.63
62038;BME280;47991;42.974;12.082;2023-04-27T00:20:18;97738.64;;;7.68;59.41
62038;BME280;47991;42.974;12.082;2023-04-27T00:22:57;97741.36;;;7.62;59.89
62038;BME280;47991;42.974;12.082;2023-04-27T00:25:56;97740.95;;;7.55;60.60
62038;BME280;47991;42.974;12.082;2023-04-27T00:28:23;97739.08;;;7.42;60.69
62038;BME280;47991;42.974;12.082;2023-04-27T00:30:56;97740.28;;;7.32;61.07
62038;BME280;47991;42.974;12.082;2023-04-27T00:34:01;97736.85;;;7.26;61.17
62038;BME280;47991;42.974;12.082;2023-04-27T00:36:47;97742.18;;;7.23;61.06
62038;BME280;47991;42.974;12.082;2023-04-27T00:39:19;97741.49;;;7.21;60.66
62038;BME280;47991;42.974;12.082;2023-04-27T00:41:51;97745.52;;;7.22;60.66
62038;BME280;47991;42.974;12.082;2023-04-27T00:45:22;97745.05;;;7.19;60.45
62038;BME280;47991;42.974;12.082;2023-04-27T00:47:36;97748.72;;;7.20;60.09
62038;BME280;47991;42.974;12.082;2023-04-27T00:50:03;97749.71;;;7.25;60.30
62038;BME280;47991;42.974;12.082;2023-04-27T00:52:50;97743.05;;;7.24;60.43
62038;BME280;47991;42.974;12.082;2023-04-27T00:55:16;97739.76;;;7.20;60.63
62038;BME280;47991;42.974;12.082;2023-04-27T00:57:42;97740.14;;;7.18;60.73
62038;BME280;47991;42.974;12.082;2023-04-27T01:00:12;97741.23;;;7.17;60.78
62038;BME280;47991;42.974;12.082;2023-04-27T01:02:44;97738.03;;;7.07;61.26
62038;BME280;47991;42.974;12.082;2023-04-27T01:08:30;97737.45;;;6.85;61.20
62038;BME280;47991;42.974;12.082;2023-04-27T01:15:08;97733.06;;;6.74;61.35
62038;BME280;47991;42.974;12.082;2023-04-27T01:17:44;97736.19;;;6.75;61.03
62038;BME280;47991;42.974;12.082;2023-04-27T01:20:28;97735.27;;;6.79;61.33
62038;BME280;47991;42.974;12.082;2023-04-27T01:23:01;97733.73;;;6.74;61.41
62038;BME280;47991;42.974;12.082;2023-04-27T01:25:36;97737.78;;;6.73;61.46
62038;BME280;47991;42.974;12.082;2023-04-27T01:28:12;97741.48;;;6.74;61.76
62038;BME280;47991;42.974;12.082;2023-04-27T01:31:19;97741.02;;;6.70;61.93
62038;BME280;47991;42.974;12.082;2023-04-27T01:34:04;97743.16;;;6.67;62.42
62038;BME280;47991;42.974;12.082;2023-04-27T01:36:31;97745.58;;;6.70;62.35
62038;BME280;47991;42.974;12.082;2023-04-27T01:39:01;97743.45;;;6.71;62.37
62038;BME280;47991;42.974;12.082;2023-04-27T01:41:31;97740.77;;;6.75;61.94
62038;BME280;47991;42.974;12.082;2023-04-27T01:44:48;97751.66;;;6.74;61.87
62038;BME280;47991;42.974;12.082;2023-04-27T01:48:03;97752.23;;;6.57;62.06
62038;BME280;47991;42.974;12.082;2023-04-27T01:51:42;97754.09;;;6.50;62.24
62038;BME280;47991;42.974;12.082;2023-04-27T01:54:28;97749.20;;;6.46;62.68
62038;BME280;47991;42.974;12.082;2023-04-27T02:01:28;97749.84;;;6.39;62.75
62038;BME280;47991;42.974;12.082;2023-04-27T02:04:44;97749.75;;;6.31;62.68
62038;BME280;47991;42.974;12.082;2023-04-27T06:37:41;97851.91;;;22.50;33.53
62038;BME280;47991;42.974;12.082;2023-04-27T06:40:07;97856.94;;;22.45;33.83
62038;BME280;47991;42.974;12.082;2023-04-27T06:42:34;97855.80;;;22.38;33.38
62038;BME280;47991;42.974;12.082;2023-04-27T06:45:00;97858.61;;;21.67;34.58
62038;BME280;47991;42.974;12.082;2023-04-27T06:47:26;97861.66;;;20.93;36.22
62038;BME280;47991;42.974;12.082;2023-04-27T06:49:58;97866.55;;;19.84;37.14
62038;BME280;47991;42.974;12.082;2023-04-27T06:52:45;97866.04;;;18.93;39.76
62038;BME280;47991;42.974;12.082;2023-04-27T06:55:17;97874.39;;;18.24;41.44
62038;BME280;47991;42.974;12.082;2023-04-27T06:57:44;97875.98;;;17.70;43.67
62038;BME280;47991;42.974;12.082;2023-04-27T07:00:17;97876.31;;;17.11;44.94
62038;BME280;47991;42.974;12.082;2023-04-27T07:02:46;97879.25;;;16.54;45.94
62038;BME280;47991;42.974;12.082;2023-04-27T07:05:18;97880.03;;;16.50;45.74
62038;BME280;47991;42.974;12.082;2023-04-27T07:07:47;97878.31;;;16.34;46.95
62038;BME280;47991;42.974;12.082;2023-04-27T07:10:14;97884.70;;;16.09;47.17
62038;BME280;47991;42.974;12.082;2023-04-27T07:12:44;97881.31;;;16.16;47.62
62038;BME280;47991;42.974;12.082;2023-04-27T07:15:13;97885.80;;;16.41;45.64
62038;BME280;47991;42.974;12.082;2023-04-27T07:17:47;97881.50;;;16.56;45.77
62038;BME280;47991;42.974;12.082;2023-04-27T07:20:21;97879.58;;;16.79;44.68
62038;BME280;47991;42.974;12.082;2023-04-27T07:22:48;97876.09;;;16.88;43.72
62038;BME280;47991;42.974;12.082;2023-04-27T07:25:15;97875.74;;;16.84;44.11
62038;BME280;47991;42.974;12.082;2023-04-27T07:28:00;97877.77;;;16.80;45.87
62038;BME280;47991;42.974;12.082;2023-04-27T07:30:32;97874.45;;;16.82;45.52
62038;BME280;47991;42.974;12.082;2023-04-27T07:33:08;97874.89;;;16.95;43.94
62038;BME280;47991;42.974;12.082;2023-04-27T07:35:41;97876.05;;;16.99;45.03
62038;BME280;47991;42.974;12.082;2023-04-27T07:38:51;97874.15;;;16.98;44.06
62038;BME280;47991;42.974;12.082;2023-04-27T07:41:28;97877.84;;;16.82;44.74
62038;BME280;47991;42.974;12.082;2023-04-27T07:43:55;97875.39;;;17.02;44.33
62038;BME280;47991;42.974;12.082;2023-04-27T07:46:22;97874.77;;;17.14;45.47
62038;BME280;47991;42.974;12.082;2023-04-27T07:48:49;97874.54;;;17.28;43.72
62038;BME280;47991;42.974;12.082;2023-04-27T07:51:18;97868.29;;;17.68;43.10
62038;BME280;47991;42.974;12.082;2023-04-27T07:53:45;97872.95;;;17.84;42.31
62038;BME280;47991;42.974;12.082;2023-04-27T07:56:11;97872.51;;;17.75;42.44
62038;BME280;47991;42.974;12.082;2023-04-27T07:58:39;97871.50;;;17.94;42.18
62038;BME280;47991;42.974;12.082;2023-04-27T08:01:11;97866.91;;;18.08;41.92
62038;BME280;47991;42.974;12.082;2023-04-27T08:04:09;97865.66;;;18.18;41.75
62038;BME280;47991;42.974;12.082;2023-04-27T08:06:44;97863.27;;;17.87;42.38
62038;BME280;47991;42.974;12.082;2023-04-27T08:09:23;97867.25;;;18.06;42.92
62038;BME280;47991;42.974;12.082;2023-04-27T08:12:03;97865.13;;;18.18;43.06
62038;BME280;47991;42.974;12.082;2023-04-27T08:14:29;97866.41;;;18.27;42.59
62038;BME280;47991;42.974;12.082;2023-04-27T08:17:15;97873.84;;;18.59;42.66
62038;BME280;47991;42.974;12.082;2023-04-27T08:19:46;97872.41;;;18.68;42.90
62038;BME280;47991;42.974;12.082;2023-04-27T08:22:12;97870.88;;;18.94;42.85
62038;BME280;47991;42.974;12.082;2023-04-27T08:24:39;97873.02;;;19.03;42.79
62038;BME280;47991;42.974;12.082;2023-04-27T08:27:06;97871.48;;;19.13;41.63
62038;BME280;47991;42.974;12.082;2023-04-27T08:29:32;97870.19;;;19.14;42.23
62038;BME280;47991;42.974;12.082;2023-04-27T08:32:05;97871.91;;;19.27;41.70
62038;BME280;47991;42.974;12.082;2023-04-27T08:34:32;97871.11;;;19.22;41.59
62038;BME280;47991;42.974;12.082;2023-04-27T08:36:58;97875.52;;;19.52;41.07
62038;BME280;47991;42.974;12.082;2023-04-27T08:39:26;97874.63;;;19.52;39.94
62038;BME280;47991;42.974;12.082;2023-04-27T08:41:52;97871.87;;;19.42;39.58
62038;BME280;47991;42.974;12.082;2023-04-27T08:44:21;97872.48;;;19.58;39.50
62038;BME280;47991;42.974;12.082;2023-04-27T08:46:54;97871.54;;;19.76;39.25
62038;BME280;47991;42.974;12.082;2023-04-27T08:49:28;97869.92;;;19.85;40.15
62038;BME280;47991;42.974;12.082;2023-04-27T08:52:14;97867.55;;;20.02;39.95
62038;BME280;47991;42.974;12.082;2023-04-27T08:54:42;97864.83;;;20.13;39.08
62038;BME280;47991;42.974;12.082;2023-04-27T08:57:13;97866.88;;;20.18;40.16
62038;BME280;47991;42.974;12.082;2023-04-27T08:59:56;97865.27;;;19.81;40.80
62038;BME280;47991;42.974;12.082;2023-04-27T09:02:50;97862.70;;;19.71;41.09
62038;BME280;47991;42.974;12.082;2023-04-27T09:05:44;97864.16;;;19.83;40.66
62038;BME280;47991;42.974;12.082;2023-04-27T09:08:11;97861.44;;;20.13;41.92
62038;BME280;47991;42.974;12.082;2023-04-27T09:10:46;97861.08;;;20.48;40.90
62038;BME280;47991;42.974;12.082;2023-04-27T09:16:27;97864.64;;;20.51;41.16
62038;BME280;47991;42.974;12.082;2023-04-27T09:19:33;97859.75;;;20.36;39.71
62038;BME280;47991;42.974;12.082;2023-04-27T09:22:09;97858.30;;;20.39;38.82
62038;BME280;47991;42.974;12.082;2023-04-27T09:24:49;97857.52;;;20.32;37.95
62038;BME280;47991;42.974;12.082;2023-04-27T09:27:20;97856.35;;;20.12;35.14
62038;BME280;47991;42.974;12.082;2023-04-27T09:29:49;97855.74;;;20.31;35.42
62038;BME280;47991;42.974;12.082;2023-04-27T09:32:24;97847.52;;;20.52;35.65
62038;BME280;47991;42.974;12.082;2023-04-27T09:34:53;97845.11;;;20.46;29.58
62038;BME280;47991;42.974;12.082;2023-04-27T10:30:30;97828.00;;;22.77;31.35
62038;BME280;47991;42.974;12.082;2023-04-27T10:33:07;97824.63;;;22.72;31.96
62038;BME280;47991;42.974;12.082;2023-04-27T10:35:38;97823.60;;;22.81;32.83
62038;BME280;47991;42.974;12.082;2023-04-27T10:38:13;97825.96;;;23.01;32.78
62038;BME280;47991;42.974;12.082;2023-04-27T10:40:40;97826.05;;;23.21;32.84
62038;BME280;47991;42.974;12.082;2023-04-27T10:43:12;97824.86;;;23.43;32.99
62038;BME280;47991;42.974;12.082;2023-04-27T10:45:39;97824.20;;;23.62;31.77
62038;BME280;47991;42.974;12.082;2023-04-27T10:48:06;97819.95;;;23.77;31.17
62038;BME280;47991;42.974;12.082;2023-04-27T10:50:33;97815.72;;;23.74;29.55
62038;BME280;47991;42.974;12.082;2023-04-27T10:53:02;97816.44;;;23.67;29.73
62038;BME280;47991;42.974;12.082;2023-04-27T10:55:29;97818.73;;;23.59;26.88
62038;BME280;47991;42.974;12.082;2023-04-27T10:58:02;97813.02;;;23.65;27.31
62038;BME280;47991;42.974;12.082;2023-04-27T11:00:37;97812.87;;;23.26;26.13
62038;BME280;47991;42.974;12.082;2023-04-27T11:05:36;97809.40;;;22.91;27.51
62038;BME280;47991;42.974;12.082;2023-04-27T11:08:06;97808.77;;;23.04;28.45
62038;BME280;47991;42.974;12.082;2023-04-27T11:10:37;97810.16;;;23.26;28.76
62038;BME280;47991;42.974;12.082;2023-04-27T11:13:10;97803.83;;;23.60;28.90
62038;BME280;47991;42.974;12.082;2023-04-27T11:15:54;97809.42;;;23.85;28.72
62038;BME280;47991;42.974;12.082;2023-04-27T11:18:22;97807.59;;;24.05;28.32
62038;BME280;47991;42.974;12.082;2023-04-27T11:20:53;97800.85;;;24.17;28.43
62038;BME280;47991;42.974;12.082;2023-04-27T11:23:27;97801.51;;;24.39;28.31
62038;BME280;47991;42.974;12.082;2023-04-27T11:25:54;97793.88;;;24.57;28.04
62038;BME280;47991;42.974;12.082;2023-04-27T11:28:24;97795.16;;;24.28;26.11
62038;BME280;47991;42.974;12.082;2023-04-27T11:30:57;97798.38;;;23.70;25.99
62038;BME280;47991;42.974;12.082;2023-04-27T11:33:25;97802.98;;;23.66;28.05
62038;BME280;47991;42.974;12.082;2023-04-27T11:35:52;97798.34;;;23.77;27.22
62038;BME280;47991;42.974;12.082;2023-04-27T11:38:19;97804.64;;;23.93;27.57
62038;BME280;47991;42.974;12.082;2023-04-27T11:41:02;97799.48;;;23.42;27.25
62038;BME280;47991;42.974;12.082;2023-04-27T11:43:29;97798.64;;;23.00;28.07
62038;BME280;47991;42.974;12.082;2023-04-27T11:45:55;97792.87;;;23.00;27.78
62038;BME280;47991;42.974;12.082;2023-04-27T11:48:24;97793.09;;;22.91;27.70
62038;BME280;47991;42.974;12.082;2023-04-27T11:50:52;97787.48;;;22.79;28.61
62038;BME280;47991;42.974;12.082;2023-04-27T11:53:35;97782.30;;;22.85;26.95
62038;BME280;47991;42.974;12.082;2023-04-27T11:56:03;97786.23;;;23.25;28.23
62038;BME280;47991;42.974;12.082;2023-04-27T11:58:38;97790.84;;;23.67;29.20
62038;BME280;47991;42.974;12.082;2023-04-27T12:01:07;97790.91;;;23.86;27.66
62038;BME280;47991;42.974;12.082;2023-04-27T12:03:34;97787.11;;;23.82;27.29
62038;BME280;47991;42.974;12.082;2023-04-27T12:06:01;97781.83;;;23.75;26.97
62038;BME280;47991;42.974;12.082;2023-04-27T12:08:27;97788.86;;;23.58;26.37
62038;BME280;47991;42.974;12.082;2023-04-27T12:10:54;97791.20;;;23.78;27.27
62038;BME280;47991;42.974;12.082;2023-04-27T12:13:20;97790.11;;;24.00;26.82
62038;BME280;47991;42.974;12.082;2023-04-27T12:15:46;97787.78;;;24.04;26.68
62038;BME280;47991;42.974;12.082;2023-04-27T12:18:16;97784.22;;;24.28;26.67
62038;BME280;47991;42.974;12.082;2023-04-27T12:20:42;97783.33;;;24.49;26.98
62038;BME280;47991;42.974;12.082;2023-04-27T12:23:08;97779.61;;;24.63;26.25
62038;BME280;47991;42.974;12.082;2023-04-27T12:25:34;97781.48;;;24.71;25.31
62038;BME280;47991;42.974;12.082;2023-04-27T12:28:01;97780.98;;;24.81;25.35
62038;BME280;47991;42.974;12.082;2023-04-27T15:59:11;97780.88;;;21.90;30.65
62038;BME280;47991;42.974;12.082;2023-04-27T18:10:44;97862.52;;;17.55;38.98
62038;BME280;47991;42.974;12.082;2023-04-27T18:24:10;97883.77;;;17.09;39.65
62038;BME280;47991;42.974;12.082;2023-04-27T18:26:37;97881.58;;;17.03;39.96
62038;BME280;47991;42.974;12.082;2023-04-27T19:15:59;97942.84;;;15.75;44.01
62038;BME280;47991;42.974;12.082;2023-04-27T19:18:29;97942.95;;;15.72;44.04
62038;BME280;47991;42.974;12.082;2023-04-27T19:20:57;97947.71;;;15.69;44.23
